createdAt,value
2023-09-03T00:02:03.981Z,0.80
2023-09-03T00:04:30.736Z,0.90
2023-09-03T00:06:57.351Z,0.60
2023-09-03T00:09:24.054Z,0.93
2023-09-03T00:11:50.605Z,0.80
2023-09-03T00:14:17.156Z,0.93
2023-09-03T00:16:43.739Z,0.80
2023-09-03T00:19:10.369Z,0.90
2023-09-03T00:21:36.997Z,0.65
2023-09-03T00:24:03.685Z,0.75
2023-09-03T00:26:30.236Z,0.77
2023-09-03T00:28:59.950Z,0.77
2023-09-03T00:31:27.947Z,0.82
2023-09-03T00:33:54.827Z,0.88
2023-09-03T00:36:21.661Z,0.73
2023-09-03T00:38:51.452Z,0.95
2023-09-03T00:41:18.156Z,0.93
2023-09-03T00:43:44.981Z,1.02
2023-09-03T00:46:11.787Z,0.77
2023-09-03T00:48:39.799Z,0.75
2023-09-03T00:51:09.591Z,0.90
2023-09-03T00:53:38.816Z,0.93
2023-09-03T00:56:07.311Z,0.82
2023-09-03T00:58:35.958Z,0.80
2023-09-03T01:01:03.027Z,0.90
2023-09-03T01:03:29.913Z,0.82
2023-09-03T01:05:56.604Z,0.80
2023-09-03T01:08:24.475Z,1.05
2023-09-03T01:11:05.260Z,1.17
2023-09-03T01:14:14.494Z,0.60
2023-09-03T01:17:00.442Z,0.88
2023-09-03T01:19:44.273Z,0.70
2023-09-03T01:22:38.681Z,0.90
2023-09-03T01:25:35.629Z,0.73
2023-09-03T01:28:31.676Z,0.80
2023-09-03T01:31:05.088Z,0.90
2023-09-03T01:33:34.469Z,0.63
2023-09-03T01:36:03.751Z,0.60
2023-09-03T01:38:32.003Z,1.00
2023-09-03T01:41:00.392Z,0.60
2023-09-03T01:43:27.202Z,0.65
2023-09-03T01:46:02.031Z,0.80
2023-09-03T01:48:52.242Z,1.00
2023-09-03T01:51:24.675Z,0.68
2023-09-03T01:54:03.359Z,1.20
2023-09-03T01:56:34.643Z,1.30
2023-09-03T01:59:12.399Z,0.85
2023-09-03T02:01:39.609Z,0.60
2023-09-03T02:04:06.276Z,0.80
2023-09-03T02:06:32.849Z,1.00
2023-09-03T02:08:59.400Z,0.75
2023-09-03T02:11:25.979Z,0.85
2023-09-03T02:13:52.544Z,0.68
2023-09-03T02:16:19.187Z,0.77
2023-09-03T02:18:45.805Z,1.00
2023-09-03T02:21:12.383Z,1.00
2023-09-03T02:23:38.966Z,0.60
2023-09-03T02:26:05.550Z,0.90
2023-09-03T02:28:32.135Z,1.02
2023-09-03T02:30:59.051Z,0.95
2023-09-03T02:33:25.674Z,0.80
2023-09-03T02:35:52.320Z,1.23
2023-09-03T02:38:19.715Z,0.80
2023-09-03T02:40:47.361Z,0.85
2023-09-03T02:43:14.450Z,0.57
2023-09-03T02:45:41.132Z,1.00
2023-09-03T02:48:09.617Z,0.80
2023-09-03T02:50:37.434Z,0.80
2023-09-03T02:53:08.149Z,0.80
2023-09-03T02:55:34.912Z,0.75
2023-09-03T02:58:01.830Z,0.85
2023-09-03T03:00:29.387Z,0.80
2023-09-03T03:02:56.533Z,0.90
2023-09-03T03:05:23.187Z,0.80
2023-09-03T03:07:49.827Z,1.00
2023-09-03T03:10:16.486Z,0.95
2023-09-03T03:12:45.680Z,0.85
2023-09-03T03:15:14.460Z,0.75
2023-09-03T03:17:41.673Z,0.80
2023-09-03T03:20:09.456Z,1.27
2023-09-03T03:22:36.087Z,0.95
2023-09-03T03:25:03.225Z,1.10
2023-09-03T03:27:30.479Z,1.00
2023-09-03T03:29:57.351Z,1.08
2023-09-03T03:32:24.263Z,1.05
2023-09-03T03:34:55.422Z,1.00
2023-09-03T03:37:22.060Z,1.13
2023-09-03T03:39:51.885Z,0.90
2023-09-03T03:42:20.244Z,1.30
2023-09-03T03:44:47.307Z,0.90
2023-09-03T03:47:13.941Z,1.00
2023-09-03T03:49:40.597Z,0.80
2023-09-03T03:52:07.254Z,1.02
2023-09-03T03:54:34.242Z,0.55
2023-09-03T03:57:00.886Z,1.00
2023-09-03T03:59:28.884Z,1.00
2023-09-03T04:01:56.024Z,0.90
2023-09-03T04:04:22.850Z,0.90
2023-09-03T04:06:50.122Z,0.85
2023-09-03T04:09:16.674Z,1.00
2023-09-03T04:11:43.269Z,0.88
2023-09-03T04:14:09.971Z,0.93
2023-09-03T04:16:36.760Z,0.90
2023-09-03T04:19:03.766Z,1.17
2023-09-03T04:21:30.342Z,0.80
2023-09-03T04:23:57.129Z,1.08
2023-09-03T04:26:23.743Z,0.90
2023-09-03T04:28:53.349Z,1.13
2023-09-03T04:31:20.097Z,1.13
2023-09-03T04:33:46.867Z,1.00
2023-09-03T04:36:13.642Z,0.80
2023-09-03T04:38:40.306Z,0.70
2023-09-03T04:41:07.000Z,1.30
2023-09-03T04:43:48.933Z,1.00
2023-09-03T04:46:21.863Z,0.80
2023-09-03T04:48:48.685Z,1.20
2023-09-03T04:51:15.395Z,1.38
2023-09-03T04:53:42.252Z,1.20
2023-09-03T04:56:15.467Z,1.45
2023-09-03T04:58:44.631Z,1.10
2023-09-03T05:01:18.091Z,1.25
2023-09-03T05:03:48.764Z,1.13
2023-09-03T05:06:18.016Z,1.65
2023-09-03T05:08:48.046Z,1.42
2023-09-03T05:11:16.183Z,1.00
2023-09-03T05:13:44.611Z,1.25
2023-09-03T05:16:11.929Z,1.60
2023-09-03T05:18:38.693Z,1.20
2023-09-03T05:21:12.163Z,1.77
2023-09-03T05:23:38.992Z,1.23
2023-09-03T05:26:06.356Z,1.30
2023-09-03T05:28:34.907Z,1.27
2023-09-03T05:31:01.930Z,1.30
2023-09-03T05:33:29.180Z,0.95
2023-09-03T05:35:55.925Z,1.27
2023-09-03T05:38:22.889Z,1.10
2023-09-03T05:40:49.853Z,1.35
2023-09-03T05:43:17.585Z,1.55
2023-09-03T05:45:49.848Z,1.20
2023-09-03T05:48:16.682Z,1.15
2023-09-03T05:50:43.492Z,1.20
2023-09-03T05:53:11.248Z,1.02
2023-09-03T05:55:40.391Z,1.48
2023-09-03T05:58:07.602Z,1.30
2023-09-03T06:00:34.802Z,1.35
2023-09-03T06:03:01.585Z,1.50
2023-09-03T06:05:29.032Z,1.10
2023-09-03T06:07:58.721Z,1.08
2023-09-03T06:10:25.970Z,1.25
2023-09-03T06:12:53.063Z,1.15
2023-09-03T06:15:19.675Z,1.05
2023-09-03T06:17:50.751Z,1.27
2023-09-03T06:20:17.635Z,1.08
2023-09-03T06:22:44.251Z,1.30
2023-09-03T06:25:10.833Z,0.93
2023-09-03T06:27:37.429Z,1.13
2023-09-03T06:30:04.394Z,1.40
2023-09-03T06:32:32.053Z,1.25
2023-09-03T06:34:58.654Z,1.40
2023-09-03T06:37:25.207Z,1.02
2023-09-03T06:39:51.928Z,1.17
2023-09-03T06:42:18.526Z,1.35
2023-09-03T06:44:45.130Z,1.20
2023-09-03T06:47:11.691Z,1.17
2023-09-03T06:49:38.365Z,1.08
2023-09-03T06:52:05.222Z,1.17
2023-09-03T06:54:31.835Z,1.55
2023-09-03T06:56:58.588Z,1.15
2023-09-03T06:59:34.128Z,1.30
2023-09-03T07:02:01.590Z,1.25
2023-09-03T07:04:28.340Z,1.58
2023-09-03T07:06:54.903Z,1.00
2023-09-03T07:09:21.471Z,1.25
2023-09-03T07:11:48.034Z,1.25
2023-09-03T07:14:14.576Z,1.20
2023-09-03T07:16:41.181Z,1.20
2023-09-03T07:19:07.894Z,1.27
2023-09-03T07:21:34.469Z,1.20
2023-09-03T07:24:01.014Z,1.15
2023-09-03T07:26:27.610Z,1.27
2023-09-03T07:28:54.167Z,1.23
2023-09-03T07:31:20.765Z,1.92
2023-09-03T07:33:48.725Z,1.42
2023-09-03T07:36:15.458Z,1.40
2023-09-03T07:38:42.066Z,1.63
2023-09-03T07:41:08.911Z,1.60
2023-09-03T07:43:35.817Z,1.55
2023-09-03T07:46:03.786Z,1.45
2023-09-03T07:48:30.370Z,1.40
2023-09-03T07:50:56.939Z,1.30
2023-09-03T07:53:23.923Z,1.65
2023-09-03T07:55:50.776Z,1.88
2023-09-03T07:58:17.370Z,1.73
2023-09-03T08:00:44.025Z,1.48
2023-09-03T08:03:10.612Z,1.45
2023-09-03T08:05:37.178Z,1.80
2023-09-03T08:08:03.945Z,1.60
2023-09-03T08:10:30.521Z,1.30
2023-09-03T08:12:57.115Z,1.70
2023-09-03T08:15:33.868Z,1.55
2023-09-03T08:18:08.380Z,1.40
2023-09-03T08:20:34.990Z,1.77
2023-09-03T08:23:01.544Z,1.05
2023-09-03T08:25:29.642Z,1.00
2023-09-03T08:27:56.290Z,1.60
2023-09-03T08:30:22.879Z,1.17
2023-09-03T08:32:49.508Z,1.02
2023-09-03T08:35:16.155Z,1.05
2023-09-03T08:37:42.737Z,0.70
2023-09-03T08:40:10.112Z,0.95
2023-09-03T08:42:41.922Z,1.10
2023-09-03T08:45:12.589Z,1.30
2023-09-03T08:47:41.526Z,0.70
2023-09-03T08:50:13.039Z,0.90
2023-09-03T08:52:40.954Z,0.80
2023-09-03T08:55:10.092Z,0.98
2023-09-03T08:57:36.854Z,1.10
2023-09-03T09:00:07.817Z,0.60
2023-09-03T09:02:38.966Z,1.05
2023-09-03T09:05:08.776Z,1.00
2023-09-03T09:07:35.399Z,0.77
2023-09-03T09:10:07.664Z,1.08
2023-09-03T09:12:50.320Z,0.90
2023-09-03T09:15:16.906Z,0.80
2023-09-03T09:17:44.560Z,0.80
2023-09-03T09:20:13.375Z,0.90
2023-09-03T09:22:41.211Z,0.88
2023-09-03T09:25:08.789Z,0.82
2023-09-03T09:27:39.101Z,0.85
2023-09-03T09:30:14.281Z,0.88
2023-09-03T09:32:42.633Z,0.70
2023-09-03T09:35:09.784Z,1.60
2023-09-03T09:37:42.647Z,0.73
2023-09-03T09:40:10.010Z,0.73
2023-09-03T09:42:53.002Z,0.77
2023-09-03T09:45:19.776Z,1.15
2023-09-03T09:47:50.702Z,0.60
2023-09-03T09:50:32.542Z,1.02
2023-09-03T09:52:59.201Z,0.98
2023-09-03T09:55:26.018Z,1.30
2023-09-03T09:57:52.593Z,0.80
2023-09-03T10:00:33.152Z,1.00
2023-09-03T10:03:00.212Z,0.60
2023-09-03T10:05:26.960Z,1.10
2023-09-03T10:07:56.554Z,0.70
2023-09-03T10:10:23.259Z,0.73
2023-09-03T10:12:49.827Z,0.73
2023-09-03T10:15:16.467Z,0.50
2023-09-03T10:17:46.184Z,0.80
2023-09-03T10:20:17.239Z,0.70
2023-09-03T10:22:46.068Z,0.82
2023-09-03T10:25:17.416Z,0.77
2023-09-03T10:27:51.485Z,0.90
2023-09-03T10:30:24.633Z,0.80
2023-09-03T10:32:53.841Z,0.63
2023-09-03T10:35:20.520Z,0.80
2023-09-03T10:37:51.013Z,0.57
2023-09-03T10:40:25.603Z,1.33
2023-09-03T10:42:53.868Z,0.65
2023-09-03T10:45:20.919Z,0.60
2023-09-03T10:48:06.974Z,0.80
2023-09-03T10:50:49.319Z,0.65
2023-09-03T10:53:37.641Z,0.80
2023-09-03T10:56:14.180Z,0.80
2023-09-03T10:58:58.418Z,0.60
2023-09-03T11:01:32.088Z,0.77
2023-09-03T11:04:00.710Z,0.50
2023-09-03T11:06:29.169Z,0.80
2023-09-03T11:09:05.205Z,0.70
2023-09-03T11:11:34.798Z,0.80
2023-09-03T11:14:01.793Z,0.68
2023-09-03T11:16:36.580Z,0.50
2023-09-03T11:19:05.532Z,0.70
2023-09-03T11:21:32.236Z,0.77
2023-09-03T11:24:03.677Z,0.47
2023-09-03T11:26:32.265Z,0.70
2023-09-03T11:29:00.766Z,0.90
2023-09-03T11:31:29.423Z,0.70
2023-09-03T11:33:59.413Z,0.70
2023-09-03T11:36:26.173Z,0.90
2023-09-03T11:38:56.047Z,0.50
2023-09-03T11:41:22.993Z,0.88
2023-09-03T11:43:49.977Z,0.70
2023-09-03T11:46:18.237Z,0.52
2023-09-03T11:48:52.562Z,0.95
2023-09-03T11:51:30.009Z,0.95
2023-09-03T11:53:57.522Z,0.60
2023-09-03T11:56:26.448Z,0.77
2023-09-03T11:59:00.606Z,0.88
2023-09-03T12:01:28.317Z,0.70
2023-09-03T12:03:56.412Z,0.77
2023-09-03T12:06:23.097Z,0.95
2023-09-03T12:08:49.717Z,1.42
2023-09-03T12:11:16.366Z,0.60
2023-09-03T12:13:45.353Z,0.70
2023-09-03T12:16:16.250Z,0.70
2023-09-03T12:19:02.514Z,0.73
2023-09-03T12:21:34.067Z,0.70
2023-09-03T12:24:06.205Z,0.77
2023-09-03T12:26:34.054Z,0.77
2023-09-03T12:29:02.595Z,1.10
2023-09-03T12:31:42.679Z,0.50
2023-09-03T12:34:09.719Z,0.68
2023-09-03T12:36:55.367Z,0.95
2023-09-03T12:39:48.288Z,0.82
2023-09-03T12:42:14.980Z,0.90
2023-09-03T12:44:44.615Z,0.70
2023-09-03T12:47:11.241Z,0.70
2023-09-03T12:49:38.014Z,0.47
2023-09-03T12:52:04.866Z,0.90
2023-09-03T12:54:32.720Z,0.60
2023-09-03T12:57:00.420Z,0.73
2023-09-03T12:59:27.060Z,0.70
2023-09-03T13:01:53.693Z,0.73
2023-09-03T13:04:20.363Z,0.90
2023-09-03T13:06:47.243Z,0.80
2023-09-03T13:09:13.813Z,0.73
2023-09-03T13:11:40.395Z,1.67
2023-09-03T13:14:07.110Z,0.88
2023-09-03T13:16:34.730Z,0.70
2023-09-03T13:19:01.951Z,0.90
2023-09-03T13:21:29.103Z,0.80
2023-09-03T13:23:55.681Z,0.60
2023-09-03T13:26:22.257Z,0.80
2023-09-03T13:28:48.817Z,0.70
2023-09-03T13:31:16.854Z,0.90
2023-09-03T13:33:43.561Z,0.63
2023-09-03T13:36:12.224Z,0.95
2023-09-03T13:38:39.518Z,0.60
2023-09-03T13:41:06.349Z,0.60
2023-09-03T13:43:33.131Z,0.80
2023-09-03T13:46:01.225Z,0.60
2023-09-03T13:48:28.040Z,0.90
2023-09-03T13:50:55.774Z,0.70
2023-09-03T13:53:23.316Z,0.30
2023-09-03T13:55:50.104Z,0.75
2023-09-03T13:58:16.967Z,0.60
2023-09-03T14:00:43.566Z,0.57
2023-09-03T14:03:10.297Z,0.75
2023-09-03T14:05:37.028Z,0.50
2023-09-03T14:08:03.775Z,0.65
2023-09-03T14:10:30.477Z,0.82
2023-09-03T14:12:57.099Z,0.70
2023-09-03T14:15:23.731Z,0.60
2023-09-03T14:17:50.403Z,0.60
2023-09-03T14:20:17.011Z,0.52
2023-09-03T14:22:44.470Z,0.52
2023-09-03T14:25:11.145Z,0.40
2023-09-03T14:27:37.759Z,0.70
2023-09-03T14:30:05.023Z,0.40
2023-09-03T14:32:31.654Z,0.60
2023-09-03T14:34:58.338Z,0.45
2023-09-03T14:37:24.904Z,0.70
2023-09-03T14:39:51.573Z,0.30
2023-09-03T14:42:18.308Z,0.40
2023-09-03T14:44:44.886Z,0.50
2023-09-03T14:47:11.481Z,0.60
2023-09-03T14:49:45.780Z,0.55
2023-09-03T14:52:13.041Z,0.55
2023-09-03T14:54:40.008Z,0.57
2023-09-03T14:57:09.026Z,0.50
2023-09-03T14:59:35.700Z,0.80
2023-09-03T15:02:02.327Z,0.50
2023-09-03T15:04:31.364Z,0.50
2023-09-03T15:07:00.847Z,0.50
2023-09-03T15:09:28.550Z,0.77
2023-09-03T15:11:56.306Z,0.55
2023-09-03T15:14:22.920Z,0.52
2023-09-03T15:16:49.630Z,0.50
2023-09-03T15:19:16.196Z,0.52
2023-09-03T15:21:44.527Z,0.40
2023-09-03T15:24:11.250Z,0.63
2023-09-03T15:26:37.875Z,0.73
2023-09-03T15:29:04.652Z,0.50
2023-09-03T15:31:31.387Z,0.60
2023-09-03T15:33:58.068Z,0.73
2023-09-03T15:36:24.661Z,0.85
2023-09-03T15:38:51.271Z,0.43
2023-09-03T15:41:18.037Z,0.55
2023-09-03T15:43:46.019Z,0.50
2023-09-03T15:46:13.352Z,0.35
2023-09-03T15:48:40.325Z,0.35
2023-09-03T15:51:07.018Z,0.80
2023-09-03T15:53:33.598Z,0.60
2023-09-03T15:56:00.169Z,0.52
2023-09-03T15:58:26.810Z,0.50
2023-09-03T16:00:53.416Z,0.50
2023-09-03T16:03:21.803Z,0.52
2023-09-03T16:05:48.482Z,0.60
2023-09-03T16:08:15.083Z,0.52
2023-09-03T16:10:41.692Z,0.60
2023-09-03T16:13:08.728Z,0.60
2023-09-03T16:15:40.346Z,0.63
2023-09-03T16:18:07.415Z,0.30
2023-09-03T16:20:37.541Z,0.60
2023-09-03T16:23:04.521Z,0.63
2023-09-03T16:25:31.484Z,0.50
2023-09-03T16:27:58.063Z,0.30
2023-09-03T16:30:24.804Z,0.60
2023-09-03T16:32:51.676Z,0.50
2023-09-03T16:35:20.399Z,0.50
2023-09-03T16:37:47.108Z,0.32
2023-09-03T16:40:14.841Z,0.75
2023-09-03T16:42:41.544Z,0.40
2023-09-03T16:45:08.761Z,0.50
2023-09-03T16:47:35.494Z,0.50
2023-09-03T16:50:04.793Z,0.52
2023-09-03T16:52:34.419Z,0.70
2023-09-03T16:55:01.548Z,0.50
2023-09-03T16:57:28.742Z,0.40
2023-09-03T16:59:55.391Z,0.45
2023-09-03T17:02:22.106Z,0.47
2023-09-03T17:04:48.787Z,0.68
2023-09-03T17:07:15.540Z,0.45
2023-09-03T17:09:42.214Z,0.63
2023-09-03T17:12:08.955Z,0.65
2023-09-03T17:14:35.518Z,0.47
2023-09-03T17:17:06.300Z,0.55
2023-09-03T17:19:33.331Z,0.70
2023-09-03T17:21:59.987Z,0.52
2023-09-03T17:24:26.710Z,0.45
2023-09-03T17:26:53.390Z,0.43
2023-09-03T17:29:20.043Z,0.55
2023-09-03T17:31:46.628Z,0.70
2023-09-03T17:34:13.266Z,0.43
2023-09-03T17:36:39.839Z,0.60
2023-09-03T17:39:06.472Z,0.55
2023-09-03T17:41:34.060Z,0.70
2023-09-03T17:44:01.028Z,0.60
2023-09-03T17:46:27.759Z,0.95
2023-09-03T17:48:54.526Z,1.10
2023-09-03T17:51:21.278Z,0.98
2023-09-03T17:53:47.859Z,1.02
2023-09-03T17:56:14.422Z,1.00
2023-09-03T17:58:41.004Z,0.60
2023-09-03T18:01:07.669Z,0.80
2023-09-03T18:03:34.610Z,0.90
2023-09-03T18:06:07.480Z,0.95
2023-09-03T18:08:34.156Z,0.88
2023-09-03T18:11:00.761Z,1.10
2023-09-03T18:13:27.300Z,1.10
2023-09-03T18:15:59.885Z,1.10
2023-09-03T18:18:26.480Z,1.02
2023-09-03T18:20:53.171Z,1.00
2023-09-03T18:23:19.711Z,0.80
2023-09-03T18:25:46.478Z,1.08
2023-09-03T18:28:13.093Z,1.15
2023-09-03T18:30:39.731Z,1.10
2023-09-03T18:33:06.460Z,1.30
2023-09-03T18:35:34.712Z,0.90
2023-09-03T18:38:01.588Z,1.17
2023-09-03T18:40:28.272Z,1.02
2023-09-03T18:42:55.200Z,1.10
2023-09-03T18:45:21.904Z,1.10
2023-09-03T18:47:48.612Z,1.10
2023-09-03T18:50:15.331Z,1.17
2023-09-03T18:52:41.937Z,0.95
2023-09-03T18:55:08.870Z,1.20
2023-09-03T18:57:35.480Z,1.35
2023-09-03T19:00:02.252Z,0.80
2023-09-03T19:02:28.941Z,1.10
2023-09-03T19:04:58.681Z,1.05
2023-09-03T19:07:25.290Z,1.20
2023-09-03T19:09:51.937Z,0.88
2023-09-03T19:12:18.895Z,1.08
2023-09-03T19:14:45.478Z,1.25
2023-09-03T19:17:13.472Z,0.88
2023-09-03T19:19:40.034Z,1.10
2023-09-03T19:22:06.643Z,1.02
2023-09-03T19:24:33.263Z,1.10
2023-09-03T19:26:59.885Z,1.02
2023-09-03T19:29:26.663Z,0.93
2023-09-03T19:31:54.555Z,1.05
2023-09-03T19:34:25.370Z,1.08
2023-09-03T19:36:53.404Z,1.33
2023-09-03T19:39:20.158Z,1.10
2023-09-03T19:41:51.205Z,1.25
2023-09-03T19:44:18.601Z,1.40
2023-09-03T19:46:45.200Z,1.10
2023-09-03T19:49:11.849Z,1.20
2023-09-03T19:51:38.503Z,1.00
2023-09-03T19:54:05.317Z,1.30
2023-09-03T19:56:32.346Z,1.17
2023-09-03T19:58:59.117Z,1.50
2023-09-03T20:01:26.843Z,1.30
2023-09-03T20:03:53.848Z,1.40
2023-09-03T20:06:21.027Z,0.98
2023-09-03T20:08:47.553Z,0.80
2023-09-03T20:11:16.612Z,1.02
2023-09-03T20:13:46.494Z,0.77
2023-09-03T20:16:13.423Z,1.10
2023-09-03T20:18:40.216Z,0.85
2023-09-03T20:21:06.837Z,0.82
2023-09-03T20:23:33.431Z,0.80
2023-09-03T20:26:05.769Z,1.20
2023-09-03T20:31:04.966Z,0.93
2023-09-03T20:33:31.632Z,1.27
2023-09-03T20:35:59.269Z,1.08
2023-09-03T20:38:27.539Z,1.30
2023-09-03T20:40:55.184Z,1.50
2023-09-03T20:43:21.792Z,1.08
2023-09-03T20:45:48.533Z,1.63
2023-09-03T20:48:15.386Z,1.50
2023-09-03T20:50:42.025Z,1.02
2023-09-03T20:53:09.916Z,1.50
2023-09-03T20:55:38.052Z,1.13
2023-09-03T20:58:05.483Z,1.13
2023-09-03T21:00:35.694Z,1.30
2023-09-03T21:03:02.317Z,0.98
2023-09-03T21:05:28.879Z,0.93
2023-09-03T21:07:55.471Z,1.60
2023-09-03T21:10:22.143Z,1.38
2023-09-03T21:12:48.698Z,1.20
2023-09-03T21:15:15.352Z,0.90
2023-09-03T21:17:41.989Z,1.08
2023-09-03T21:20:09.643Z,1.27
2023-09-03T21:22:36.469Z,1.30
2023-09-03T21:25:03.588Z,1.15
2023-09-03T21:27:30.300Z,1.60
2023-09-03T21:29:57.760Z,1.00
2023-09-03T21:32:24.361Z,1.17
2023-09-03T21:34:50.962Z,1.13
2023-09-03T21:37:17.602Z,1.00
2023-09-03T21:39:44.364Z,0.88
2023-09-03T21:42:10.964Z,1.08
2023-09-03T21:44:37.622Z,1.10
2023-09-03T21:47:04.675Z,1.30
2023-09-03T21:49:31.463Z,1.05
2023-09-03T21:51:58.031Z,0.98
2023-09-03T21:54:24.665Z,1.00
2023-09-03T21:56:51.251Z,1.23
2023-09-03T21:59:17.851Z,1.13
2023-09-03T22:01:44.534Z,0.90
2023-09-03T22:04:11.110Z,1.02
2023-09-03T22:06:37.814Z,1.02
2023-09-03T22:09:06.910Z,1.17
2023-09-03T22:11:33.472Z,1.05
2023-09-03T22:14:00.071Z,0.93
2023-09-03T22:16:26.670Z,0.98
2023-09-03T22:18:57.109Z,1.00
2023-09-03T22:21:25.186Z,0.98
2023-09-03T22:23:51.777Z,1.02
2023-09-03T22:26:18.731Z,2.00
2023-09-03T22:28:45.985Z,1.10
2023-09-03T22:31:13.394Z,1.13
2023-09-03T22:33:40.235Z,1.75
2023-09-03T22:36:06.786Z,1.00
2023-09-03T22:38:33.532Z,1.35
2023-09-03T22:41:00.086Z,1.17
2023-09-03T22:43:26.649Z,1.23
2023-09-03T22:45:53.221Z,1.63
2023-09-03T22:48:19.797Z,1.20
2023-09-03T22:50:47.058Z,1.00
2023-09-03T22:53:13.750Z,1.00
2023-09-03T22:55:40.646Z,1.10
2023-09-03T22:58:07.258Z,0.95
2023-09-03T23:00:33.938Z,0.98
2023-09-03T23:03:00.531Z,1.13
2023-09-03T23:05:27.165Z,1.00
2023-09-03T23:07:53.701Z,0.70
2023-09-03T23:10:20.276Z,1.02
2023-09-03T23:12:46.832Z,1.08
2023-09-03T23:15:13.391Z,0.90
2023-09-03T23:17:40.002Z,0.77
2023-09-03T23:20:07.854Z,0.73
2023-09-03T23:22:34.894Z,1.00
2023-09-03T23:25:01.435Z,0.95
2023-09-03T23:27:27.982Z,1.00
2023-09-03T23:29:54.840Z,1.20
2023-09-03T23:32:21.415Z,0.68
2023-09-03T23:34:47.970Z,1.10
2023-09-03T23:37:15.073Z,0.90
2023-09-03T23:39:41.706Z,0.95
2023-09-03T23:42:08.328Z,1.02
2023-09-03T23:44:34.924Z,0.70
2023-09-03T23:47:12.534Z,1.00
2023-09-03T23:49:40.122Z,0.95
2023-09-03T23:52:06.688Z,1.17
2023-09-03T23:54:33.249Z,0.80
2023-09-03T23:56:59.819Z,0.60
2023-09-03T23:59:26.393Z,0.88
